createdAt,value
2023-03-15T00:00:20.528Z,5.90
2023-03-15T00:02:49.875Z,5.80
2023-03-15T00:05:30.489Z,5.80
2023-03-15T00:08:21.518Z,5.80
2023-03-15T00:10:51.861Z,5.70
2023-03-15T00:13:43.194Z,5.70
2023-03-15T00:16:19.990Z,5.60
2023-03-15T00:18:50.787Z,5.50
2023-03-15T00:21:19.056Z,5.50
2023-03-15T00:23:47.861Z,5.50
2023-03-15T00:26:22.034Z,5.40
2023-03-15T00:28:52.130Z,5.30
2023-03-15T00:31:26.445Z,5.30
2023-03-15T00:33:57.866Z,5.30
2023-03-15T00:36:47.431Z,5.40
2023-03-15T00:39:19.485Z,5.30
2023-03-15T00:41:53.312Z,5.30
2023-03-15T00:44:22.262Z,5.30
2023-03-15T00:46:52.881Z,5.30
2023-03-15T00:49:29.262Z,5.30
2023-03-15T00:51:59.374Z,5.30
2023-03-15T00:54:28.888Z,5.30
2023-03-15T00:57:04.052Z,5.30
2023-03-15T00:59:37.463Z,5.30
2023-03-15T01:02:30.917Z,5.20
2023-03-15T01:05:03.604Z,5.20
2023-03-15T01:07:55.047Z,5.20
2023-03-15T01:10:26.483Z,5.20
2023-03-15T01:12:58.848Z,5.20
2023-03-15T01:15:34.503Z,5.20
2023-03-15T01:18:28.460Z,5.20
2023-03-15T01:21:19.947Z,5.20
2023-03-15T01:24:09.087Z,5.20
2023-03-15T01:27:00.100Z,5.10
2023-03-15T01:29:49.982Z,5.20
2023-03-15T01:32:19.415Z,5.20
2023-03-15T01:34:48.072Z,5.20
2023-03-15T01:37:20.314Z,5.20
2023-03-15T01:39:51.396Z,5.20
2023-03-15T01:42:21.500Z,5.20
2023-03-15T01:45:00.014Z,5.20
2023-03-15T01:47:29.009Z,5.20
2023-03-15T01:50:03.333Z,5.20
2023-03-15T01:52:38.157Z,5.20
2023-03-15T01:55:12.273Z,5.20
2023-03-15T01:57:50.557Z,5.20
2023-03-15T02:00:28.344Z,5.20
2023-03-15T02:03:31.462Z,5.20
2023-03-15T02:06:10.532Z,5.20
2023-03-15T02:08:48.506Z,5.30
2023-03-15T02:11:21.786Z,5.30
2023-03-15T02:13:53.480Z,5.40
2023-03-15T02:16:27.458Z,5.40
2023-03-15T02:18:56.712Z,5.30
2023-03-15T02:21:38.550Z,5.40
2023-03-15T02:24:37.389Z,5.30
2023-03-15T02:27:07.429Z,5.30
2023-03-15T02:29:58.666Z,5.30
2023-03-15T02:32:29.962Z,5.30
2023-03-15T02:34:59.862Z,5.30
2023-03-15T02:37:28.936Z,5.20
2023-03-15T02:40:20.751Z,5.20
2023-03-15T02:42:53.774Z,5.10
2023-03-15T02:45:32.017Z,5.10
2023-03-15T02:48:03.018Z,5.10
2023-03-15T02:50:31.190Z,5.10
2023-03-15T02:52:59.719Z,5.10
2023-03-15T02:55:31.718Z,5.10
2023-03-15T02:58:00.133Z,5.10
2023-03-15T03:00:30.898Z,5.10
2023-03-15T03:03:01.794Z,5.00
2023-03-15T03:05:30.706Z,5.00
2023-03-15T03:08:00.160Z,5.00
2023-03-15T03:10:28.490Z,5.10
2023-03-15T03:12:59.696Z,5.10
2023-03-15T03:15:32.145Z,5.10
2023-03-15T03:18:02.016Z,5.00
2023-03-15T03:20:30.707Z,4.90
2023-03-15T03:22:59.288Z,4.90
2023-03-15T03:25:49.961Z,4.90
2023-03-15T03:28:19.283Z,5.00
2023-03-15T03:30:53.472Z,5.00
2023-03-15T03:33:43.729Z,5.00
2023-03-15T03:36:16.397Z,5.10
2023-03-15T03:38:46.486Z,5.00
2023-03-15T03:41:18.926Z,5.10
2023-03-15T03:43:46.943Z,5.10
2023-03-15T03:46:16.673Z,5.10
2023-03-15T03:48:47.976Z,5.10
2023-03-15T03:51:17.077Z,5.20
2023-03-15T03:54:07.646Z,5.20
2023-03-15T03:56:40.215Z,5.20
2023-03-15T03:59:08.803Z,5.20
2023-03-15T04:01:43.975Z,5.20
2023-03-15T04:04:14.755Z,5.20
2023-03-15T04:06:47.794Z,5.10
2023-03-15T04:09:17.240Z,5.10
2023-03-15T04:11:48.054Z,5.10
2023-03-15T04:14:18.300Z,5.10
2023-03-15T04:16:50.962Z,5.10
2023-03-15T04:19:19.596Z,5.10
2023-03-15T04:21:49.557Z,5.10
2023-03-15T04:24:19.314Z,5.10
2023-03-15T04:26:47.819Z,5.10
2023-03-15T04:29:37.830Z,5.10
2023-03-15T04:32:11.930Z,5.10
2023-03-15T04:34:41.162Z,5.10
2023-03-15T04:37:33.923Z,5.00
2023-03-15T04:40:08.279Z,5.00
2023-03-15T04:42:42.209Z,5.00
2023-03-15T04:45:16.141Z,5.00
2023-03-15T04:47:52.057Z,5.00
2023-03-15T04:50:21.622Z,5.00
2023-03-15T04:52:50.371Z,5.00
2023-03-15T04:55:42.646Z,5.00
2023-03-15T04:58:11.192Z,5.00
2023-03-15T05:00:39.658Z,5.00
2023-03-15T05:03:09.500Z,5.00
2023-03-15T05:08:29.657Z,4.90
2023-03-15T05:11:04.474Z,4.90
2023-03-15T05:13:33.248Z,4.90
2023-03-15T05:16:01.498Z,4.90
2023-03-15T05:18:34.523Z,4.80
2023-03-15T05:21:06.996Z,4.80
2023-03-15T05:23:37.525Z,4.70
2023-03-15T05:26:14.339Z,4.70
2023-03-15T05:28:50.978Z,4.60
2023-03-15T05:31:30.201Z,4.70
2023-03-15T05:34:24.503Z,4.60
2023-03-15T05:36:53.105Z,4.70
2023-03-15T05:39:25.660Z,4.50
2023-03-15T05:41:56.998Z,4.50
2023-03-15T05:44:30.650Z,4.40
2023-03-15T05:47:22.918Z,4.50
2023-03-15T05:49:53.443Z,4.40
2023-03-15T05:52:24.963Z,4.50
2023-03-15T05:54:55.064Z,4.40
2023-03-15T05:57:24.829Z,4.40
2023-03-15T06:00:16.041Z,4.40
2023-03-15T06:02:44.615Z,4.40
2023-03-15T06:05:14.500Z,4.40
2023-03-15T06:07:42.856Z,4.40
2023-03-15T06:10:12.743Z,4.40
2023-03-15T06:12:40.885Z,4.40
2023-03-15T06:15:10.201Z,4.40
2023-03-15T06:17:38.423Z,4.30
2023-03-15T06:20:12.373Z,4.40
2023-03-15T06:22:41.982Z,4.30
2023-03-15T06:25:11.155Z,4.30
2023-03-15T06:27:39.486Z,4.30
2023-03-15T06:30:09.090Z,4.30
2023-03-15T06:32:37.186Z,4.30
2023-03-15T06:35:06.606Z,4.20
2023-03-15T06:37:36.191Z,4.30
2023-03-15T06:40:11.431Z,4.20
2023-03-15T06:42:41.854Z,4.30
2023-03-15T06:45:11.258Z,4.30
2023-03-15T06:47:39.480Z,4.30
2023-03-15T06:50:08.790Z,4.30
2023-03-15T06:52:36.964Z,4.30
2023-03-15T06:55:07.467Z,4.40
2023-03-15T06:57:35.894Z,4.40
2023-03-15T07:00:07.075Z,4.50
2023-03-15T07:02:37.696Z,4.40
2023-03-15T07:05:06.496Z,4.40
2023-03-15T07:07:34.677Z,4.50
2023-03-15T07:10:02.832Z,4.50
2023-03-15T07:12:35.286Z,4.60
2023-03-15T07:15:03.326Z,4.60
2023-03-15T07:17:31.918Z,4.60
2023-03-15T07:20:02.985Z,4.60
2023-03-15T07:22:32.373Z,4.70
2023-03-15T07:25:00.476Z,4.70
2023-03-15T07:27:29.407Z,4.70
2023-03-15T07:29:58.906Z,4.70
2023-03-15T07:32:27.009Z,4.80
2023-03-15T07:34:58.290Z,4.80
2023-03-15T07:37:26.880Z,4.80
2023-03-15T07:39:55.058Z,4.90
2023-03-15T07:42:23.123Z,4.90
2023-03-15T07:44:51.418Z,4.90
2023-03-15T07:47:21.202Z,4.90
2023-03-15T07:49:49.326Z,4.90
2023-03-15T07:52:18.307Z,5.00
2023-03-15T07:54:47.123Z,5.00
2023-03-15T07:57:15.431Z,5.00
2023-03-15T07:59:46.526Z,5.10
2023-03-15T08:02:15.635Z,5.10
2023-03-15T08:04:45.154Z,5.10
2023-03-15T08:07:13.237Z,5.10
2023-03-15T08:09:41.436Z,5.20
2023-03-15T08:12:10.521Z,5.20
2023-03-15T08:14:38.487Z,5.20
2023-03-15T08:17:06.747Z,5.30
2023-03-15T08:19:34.980Z,5.40
2023-03-15T08:22:05.620Z,5.30
2023-03-15T08:24:33.910Z,5.30
2023-03-15T08:27:02.329Z,5.30
2023-03-15T08:29:30.693Z,5.40
2023-03-15T08:31:58.948Z,5.40
2023-03-15T08:34:27.338Z,5.50
2023-03-15T08:36:55.581Z,5.50
2023-03-15T08:39:25.107Z,5.40
2023-03-15T08:41:53.379Z,5.50
2023-03-15T08:44:23.645Z,5.60
2023-03-15T08:46:54.620Z,5.60
2023-03-15T08:49:22.653Z,5.60
2023-03-15T08:51:51.074Z,5.60
2023-03-15T08:54:19.306Z,5.60
2023-03-15T08:56:49.061Z,5.60
2023-03-15T08:59:31.376Z,5.70
2023-03-15T09:02:01.388Z,5.80
2023-03-15T09:04:31.752Z,5.70
2023-03-15T09:07:01.756Z,5.80
2023-03-15T09:09:29.977Z,5.80
2023-03-15T09:11:59.311Z,5.90
2023-03-15T09:14:27.348Z,5.90
2023-03-15T09:16:55.687Z,5.90
2023-03-15T09:19:26.468Z,5.90
2023-03-15T09:21:54.576Z,6.00
2023-03-15T09:24:22.757Z,6.00
2023-03-15T09:26:50.826Z,6.00
2023-03-15T09:29:20.886Z,6.10
2023-03-15T09:31:49.120Z,6.10
2023-03-15T09:34:17.509Z,6.10
2023-03-15T09:36:48.805Z,6.10
2023-03-15T09:39:20.020Z,6.10
2023-03-15T09:41:50.818Z,6.10
2023-03-15T09:44:43.952Z,6.10
2023-03-15T09:47:24.031Z,6.20
2023-03-15T09:49:56.006Z,6.20
2023-03-15T09:52:31.730Z,6.20
2023-03-15T09:55:04.771Z,6.20
2023-03-15T09:57:40.188Z,6.30
2023-03-15T10:00:15.091Z,6.30
2023-03-15T10:02:49.725Z,6.30
2023-03-15T10:05:22.206Z,6.30
2023-03-15T10:07:50.560Z,6.30
2023-03-15T10:10:20.710Z,6.30
2023-03-15T10:12:57.629Z,6.30
2023-03-15T10:15:37.965Z,6.40
2023-03-15T10:18:31.692Z,6.40
2023-03-15T10:21:07.739Z,6.50
2023-03-15T10:23:45.522Z,6.50
2023-03-15T10:26:20.658Z,6.60
2023-03-15T10:28:50.410Z,6.60
2023-03-15T10:31:36.594Z,6.60
2023-03-15T10:34:11.491Z,6.70
2023-03-15T10:36:45.923Z,6.70
2023-03-15T10:39:14.296Z,6.80
2023-03-15T10:41:44.117Z,6.80
2023-03-15T10:44:15.737Z,6.70
2023-03-15T10:47:07.013Z,6.70
2023-03-15T10:49:39.862Z,6.80
2023-03-15T10:52:25.289Z,6.80
2023-03-15T10:54:58.706Z,6.80
2023-03-15T10:57:39.006Z,6.80
2023-03-15T11:00:24.166Z,6.90
2023-03-15T11:03:03.129Z,6.90
2023-03-15T11:05:33.171Z,7.00
2023-03-15T11:08:02.782Z,7.00
2023-03-15T11:10:35.766Z,7.00
2023-03-15T11:13:20.560Z,7.00
2023-03-15T11:15:55.993Z,7.00
2023-03-15T11:18:31.406Z,7.10
2023-03-15T11:21:01.005Z,7.10
2023-03-15T11:23:31.138Z,7.20
2023-03-15T11:25:59.673Z,7.30
2023-03-15T11:28:31.430Z,7.30
2023-03-15T11:31:00.868Z,7.40
2023-03-15T11:33:39.871Z,7.40
2023-03-15T11:36:14.400Z,7.50
2023-03-15T11:38:45.011Z,7.50
2023-03-15T11:41:21.594Z,7.70
2023-03-15T11:43:57.858Z,7.70
2023-03-15T11:46:31.035Z,7.70
2023-03-15T11:49:06.119Z,7.70
2023-03-15T11:51:36.057Z,7.80
2023-03-15T11:54:09.410Z,7.70
2023-03-15T11:56:53.065Z,7.80
2023-03-15T11:59:25.798Z,7.80
2023-03-15T12:01:58.295Z,7.80
2023-03-15T12:04:42.400Z,7.70
2023-03-15T12:07:36.442Z,7.80
2023-03-15T12:10:31.087Z,7.80
2023-03-15T12:13:00.782Z,7.80
2023-03-15T12:15:49.685Z,7.90
2023-03-15T12:18:34.047Z,8.00
2023-03-15T12:21:16.475Z,7.90
2023-03-15T12:23:58.384Z,8.00
2023-03-15T12:26:32.121Z,7.90
2023-03-15T12:29:10.040Z,8.00
2023-03-15T12:31:59.352Z,8.00
2023-03-15T12:34:32.720Z,8.10
2023-03-15T12:37:06.129Z,8.10
2023-03-15T12:39:42.961Z,8.10
2023-03-15T12:42:30.940Z,8.10
2023-03-15T12:45:32.060Z,8.10
2023-03-15T12:48:25.399Z,8.20
2023-03-15T12:50:56.702Z,8.20
2023-03-15T12:53:38.823Z,8.30
2023-03-15T12:56:35.904Z,8.40
2023-03-15T12:59:17.805Z,8.30
2023-03-15T13:01:48.502Z,8.40
2023-03-15T13:04:16.899Z,8.40
2023-03-15T13:07:07.401Z,8.50
2023-03-15T13:09:58.931Z,8.50
2023-03-15T13:12:31.848Z,8.50
2023-03-15T13:15:06.604Z,8.60
2023-03-15T13:17:43.659Z,8.60
2023-03-15T13:20:24.697Z,8.60
2023-03-15T13:23:04.256Z,8.60
2023-03-15T13:25:40.084Z,8.70
2023-03-15T13:28:17.721Z,8.70
2023-03-15T13:30:50.455Z,8.80
2023-03-15T13:33:23.624Z,8.90
2023-03-15T13:35:58.098Z,8.90
2023-03-15T13:38:30.782Z,8.90
2023-03-15T13:41:03.700Z,8.90
2023-03-15T13:43:35.227Z,8.90
2023-03-15T13:46:03.980Z,9.00
2023-03-15T13:48:33.837Z,9.10
2023-03-15T13:51:07.015Z,9.10
2023-03-15T13:53:49.107Z,9.20
2023-03-15T13:56:22.626Z,9.10
2023-03-15T13:58:54.600Z,9.20
2023-03-15T14:01:25.239Z,9.20
2023-03-15T14:03:57.857Z,9.30
2023-03-15T14:06:28.405Z,9.40
2023-03-15T14:09:10.416Z,9.40
2023-03-15T14:11:42.212Z,9.50
2023-03-15T14:14:30.774Z,9.50
2023-03-15T14:17:05.682Z,9.50
2023-03-15T14:19:35.949Z,9.60
2023-03-15T14:22:06.066Z,9.60
2023-03-15T14:24:37.617Z,9.80
2023-03-15T14:27:10.257Z,10.10
2023-03-15T14:29:40.127Z,10.30
2023-03-15T14:32:10.711Z,10.60
2023-03-15T14:34:45.210Z,11.00
2023-03-15T14:37:32.134Z,11.20
2023-03-15T14:40:18.114Z,11.40
2023-03-15T14:42:48.427Z,11.70
2023-03-15T14:45:17.645Z,11.90
2023-03-15T14:47:57.061Z,12.00
2023-03-15T14:50:28.452Z,12.30
2023-03-15T14:52:58.837Z,12.40
2023-03-15T14:55:33.605Z,12.50
2023-03-15T14:58:03.852Z,12.60
2023-03-15T15:00:36.586Z,12.70
2023-03-15T15:03:07.876Z,12.70
2023-03-15T15:05:39.758Z,12.80
2023-03-15T15:08:12.867Z,13.00
2023-03-15T15:10:41.562Z,12.90
2023-03-15T15:13:18.383Z,12.80
2023-03-15T15:15:55.196Z,12.70
2023-03-15T15:18:26.156Z,12.40
2023-03-15T15:20:57.399Z,12.30
2023-03-15T15:23:31.594Z,12.10
2023-03-15T15:26:01.998Z,11.90
2023-03-15T15:28:36.968Z,11.70
2023-03-15T15:31:06.996Z,11.60
2023-03-15T15:33:35.876Z,11.40
2023-03-15T15:36:04.589Z,11.20
2023-03-15T15:38:38.930Z,11.10
2023-03-15T15:41:12.213Z,10.90
2023-03-15T15:43:41.870Z,10.90
2023-03-15T15:46:13.719Z,10.70
2023-03-15T15:48:42.394Z,10.60
2023-03-15T15:51:22.138Z,10.60
2023-03-15T15:53:50.727Z,10.50
2023-03-15T15:56:18.831Z,10.40
2023-03-15T15:58:49.023Z,10.40
2023-03-15T16:01:17.934Z,10.20
2023-03-15T16:03:45.975Z,10.20
2023-03-15T16:06:18.750Z,10.10
2023-03-15T16:08:47.706Z,10.20
2023-03-15T16:11:17.226Z,10.10
2023-03-15T16:13:51.865Z,10.10
2023-03-15T16:16:19.955Z,10.00
2023-03-15T16:18:48.056Z,10.00
2023-03-15T16:21:18.655Z,10.00
2023-03-15T16:23:53.421Z,10.00
2023-03-15T16:26:22.568Z,9.80
2023-03-15T16:28:53.011Z,9.80
2023-03-15T16:31:23.154Z,9.80
2023-03-15T16:33:54.374Z,9.80
2023-03-15T16:36:23.502Z,9.70
2023-03-15T16:38:51.649Z,9.70
2023-03-15T16:41:19.823Z,9.70
2023-03-15T16:43:49.482Z,9.60
2023-03-15T16:46:19.273Z,9.60
2023-03-15T16:48:47.478Z,9.50
2023-03-15T16:51:17.362Z,9.50
2023-03-15T16:53:45.798Z,9.50
2023-03-15T16:56:15.507Z,9.50
2023-03-15T16:58:45.237Z,9.50
2023-03-15T17:01:13.639Z,9.50
2023-03-15T17:03:43.629Z,9.50
2023-03-15T17:06:20.411Z,9.40
2023-03-15T17:08:49.718Z,9.40
2023-03-15T17:11:20.753Z,9.30
2023-03-15T17:13:48.803Z,9.30
2023-03-15T17:16:17.389Z,9.30
2023-03-15T17:18:48.948Z,9.30
2023-03-15T17:21:21.726Z,9.20
2023-03-15T17:23:52.033Z,9.20
2023-03-15T17:26:23.427Z,9.10
2023-03-15T17:28:52.566Z,9.00
2023-03-15T17:31:25.437Z,9.00
2023-03-15T17:33:56.012Z,9.00
2023-03-15T17:36:26.872Z,9.00
2023-03-15T17:38:55.754Z,8.90
2023-03-15T17:41:26.860Z,8.90
2023-03-15T17:43:55.083Z,8.80
2023-03-15T17:46:28.322Z,8.80
2023-03-15T17:48:59.052Z,8.80
2023-03-15T17:52:12.832Z,8.80
2023-03-15T17:54:39.582Z,8.80
2023-03-15T17:57:08.336Z,8.70
2023-03-15T17:59:37.000Z,8.70
2023-03-15T18:02:06.008Z,8.70
2023-03-15T18:04:38.103Z,8.70
2023-03-15T18:07:06.695Z,8.70
2023-03-15T18:09:35.778Z,8.70
2023-03-15T18:12:05.049Z,8.70
2023-03-15T18:14:53.710Z,8.70
2023-03-15T18:17:23.432Z,8.60
2023-03-15T18:19:53.998Z,8.60
2023-03-15T18:22:22.927Z,8.60
2023-03-15T18:24:51.850Z,8.70
2023-03-15T18:27:21.003Z,8.60
2023-03-15T18:29:50.543Z,8.60
2023-03-15T18:32:18.815Z,8.60
2023-03-15T18:34:47.254Z,8.60
2023-03-15T18:37:19.799Z,8.60
2023-03-15T18:39:48.736Z,8.50
2023-03-15T18:42:16.991Z,8.60
2023-03-15T18:44:45.411Z,8.60
2023-03-15T18:47:14.447Z,8.60
2023-03-15T18:49:42.605Z,8.50
2023-03-15T18:52:15.192Z,8.50
2023-03-15T18:54:44.783Z,8.50
2023-03-15T18:57:12.747Z,8.50
2023-03-15T18:59:41.776Z,8.50
2023-03-15T19:02:11.199Z,8.50
2023-03-15T19:04:47.727Z,8.50
2023-03-15T19:07:55.986Z,8.50
2023-03-15T19:10:32.909Z,8.50
2023-03-15T19:13:04.918Z,8.50
2023-03-15T19:15:41.726Z,8.50
2023-03-15T19:18:34.600Z,8.50
2023-03-15T19:24:00.360Z,8.50
2023-03-15T19:26:48.760Z,8.50
2023-03-15T19:29:21.200Z,8.50
2023-03-15T19:31:50.313Z,8.50
2023-03-15T19:34:43.183Z,8.50
2023-03-15T19:37:14.476Z,8.40
2023-03-15T19:39:45.089Z,8.40
2023-03-15T19:42:32.486Z,8.40
2023-03-15T19:45:35.708Z,8.40
2023-03-15T19:48:07.746Z,8.40
2023-03-15T19:51:01.467Z,8.40
2023-03-15T19:53:37.253Z,8.40
2023-03-15T19:59:43.608Z,8.40
2023-03-15T20:15:02.789Z,8.30
2023-03-15T20:17:49.745Z,8.40
2023-03-15T20:20:23.913Z,8.30
2023-03-15T20:22:56.000Z,8.40
2023-03-15T20:25:28.525Z,8.40
2023-03-15T20:28:04.754Z,8.40
2023-03-15T20:30:35.818Z,8.30
2023-03-15T20:33:43.611Z,8.30
2023-03-15T20:36:13.533Z,8.30
2023-03-15T20:39:09.003Z,8.30
2023-03-15T20:42:00.137Z,8.30
2023-03-15T20:44:44.872Z,8.30
2023-03-15T20:47:18.085Z,8.30
2023-03-15T20:49:50.351Z,8.30
2023-03-15T20:52:19.123Z,8.30
2023-03-15T20:55:18.014Z,8.30
2023-03-15T20:58:14.082Z,8.30
2023-03-15T21:00:47.338Z,8.20
2023-03-15T21:03:30.216Z,8.20
2023-03-15T21:06:29.482Z,8.20
2023-03-15T21:09:04.246Z,8.10
2023-03-15T21:14:29.117Z,8.10
2023-03-15T21:17:00.848Z,8.10
2023-03-15T21:22:23.802Z,8.00
2023-03-15T21:25:23.949Z,8.00
2023-03-15T21:28:01.355Z,7.90
2023-03-15T21:30:34.657Z,7.90
2023-03-15T21:33:16.577Z,7.90
2023-03-15T21:36:09.759Z,7.90
2023-03-15T21:38:47.301Z,7.90
2023-03-15T21:41:23.286Z,7.80
2023-03-15T21:43:58.990Z,7.80
2023-03-15T21:46:46.721Z,7.70
2023-03-15T21:56:27.164Z,7.70
2023-03-15T21:59:07.374Z,7.80
2023-03-15T22:01:59.863Z,7.80
2023-03-15T22:30:41.164Z,7.60
2023-03-15T22:41:33.607Z,7.80
2023-03-15T22:44:38.124Z,7.70
2023-03-15T22:50:09.046Z,7.60
2023-03-15T22:52:48.399Z,7.70
2023-03-15T22:55:39.227Z,7.60
2023-03-15T23:02:02.117Z,7.70
2023-03-15T23:16:00.221Z,7.60
2023-03-15T23:18:52.005Z,7.60
